createdAt,value
2023-05-14T00:02:21.453Z,100350.13
2023-05-14T00:04:50.173Z,100351.22
2023-05-14T00:07:18.257Z,100343.38
2023-05-14T00:09:46.331Z,100341.41
2023-05-14T00:12:14.430Z,100339.47
2023-05-14T00:14:42.558Z,100347.50
2023-05-14T00:17:12.017Z,100334.34
2023-05-14T00:19:42.037Z,100330.81
2023-05-14T00:22:10.318Z,100331.72
2023-05-14T00:24:38.847Z,100323.97
2023-05-14T00:27:07.784Z,100327.06
2023-05-14T00:29:35.906Z,100337.97
2023-05-14T00:32:04.814Z,100327.91
2023-05-14T00:34:34.331Z,100312.56
2023-05-14T00:37:02.493Z,100323.13
2023-05-14T00:39:30.546Z,100326.78
2023-05-14T00:41:58.675Z,100322.25
2023-05-14T00:44:26.775Z,100311.09
2023-05-14T00:46:55.474Z,100319.94
2023-05-14T00:49:24.352Z,100313.03
2023-05-14T00:51:54.470Z,100317.47
2023-05-14T00:54:22.947Z,100311.44
2023-05-14T00:56:51.934Z,100310.50
2023-05-14T00:59:20.064Z,100302.72
2023-05-14T01:01:48.241Z,100297.44
2023-05-14T01:04:16.952Z,100293.13
2023-05-14T01:06:59.644Z,100294.34
2023-05-14T01:09:33.938Z,100295.44
2023-05-14T01:12:07.502Z,100290.34
2023-05-14T01:14:41.920Z,100287.88
2023-05-14T01:17:13.421Z,100283.38
2023-05-14T01:19:44.640Z,100282.19
2023-05-14T01:22:14.607Z,100283.19
2023-05-14T01:24:42.806Z,100274.53
2023-05-14T01:27:18.452Z,100274.84
2023-05-14T01:30:04.351Z,100267.56
2023-05-14T01:32:34.376Z,100274.84
2023-05-14T01:35:02.926Z,100276.63
2023-05-14T01:37:33.813Z,100266.28
2023-05-14T01:40:02.403Z,100257.91
2023-05-14T01:42:31.301Z,100260.72
2023-05-14T01:44:59.725Z,100251.78
2023-05-14T01:47:28.500Z,100239.69
2023-05-14T01:49:56.790Z,100230.00
2023-05-14T01:52:25.168Z,100228.16
2023-05-14T01:54:54.716Z,100227.13
2023-05-14T01:57:22.924Z,100226.13
2023-05-14T01:59:51.049Z,100211.47
2023-05-14T02:02:19.221Z,100222.25
2023-05-14T02:04:47.352Z,100213.47
2023-05-14T02:07:15.577Z,100221.81
2023-05-14T02:09:43.807Z,100216.84
2023-05-14T02:12:13.347Z,100212.50
2023-05-14T02:14:41.434Z,100211.56
2023-05-14T02:17:09.572Z,100214.38
2023-05-14T02:19:37.619Z,100224.13
2023-05-14T02:22:05.943Z,100226.78
2023-05-14T02:24:34.228Z,100210.00
2023-05-14T02:27:02.384Z,100217.03
2023-05-14T02:29:31.955Z,100224.13
2023-05-14T02:31:59.998Z,100217.88
2023-05-14T02:34:28.080Z,100214.38
2023-05-14T02:36:56.298Z,100218.72
2023-05-14T02:39:24.336Z,100209.97
2023-05-14T02:41:52.425Z,100212.34
2023-05-14T02:44:20.566Z,100223.06
2023-05-14T02:46:50.080Z,100211.75
2023-05-14T02:49:18.233Z,100215.13
2023-05-14T02:51:46.293Z,100208.16
2023-05-14T02:54:16.550Z,100222.09
2023-05-14T02:56:44.662Z,100214.19
2023-05-14T02:59:12.716Z,100207.38
2023-05-14T03:01:41.226Z,100204.84
2023-05-14T03:04:11.155Z,100207.31
2023-05-14T03:06:39.127Z,100212.50
2023-05-14T03:09:07.656Z,100203.97
2023-05-14T03:11:36.058Z,100200.31
2023-05-14T03:14:04.131Z,100193.44
2023-05-14T03:16:32.276Z,100202.72
2023-05-14T03:19:00.395Z,100204.44
2023-05-14T03:21:30.080Z,100211.56
2023-05-14T03:23:58.246Z,100201.63
2023-05-14T03:26:26.352Z,100199.31
2023-05-14T03:28:55.758Z,100195.00
2023-05-14T03:31:24.228Z,100197.13
2023-05-14T03:33:52.464Z,100197.91
2023-05-14T03:36:20.598Z,100204.81
2023-05-14T03:38:50.208Z,100206.59
2023-05-14T03:41:20.098Z,100204.00
2023-05-14T03:43:48.250Z,100204.09
2023-05-14T03:46:16.387Z,100210.06
2023-05-14T03:48:44.703Z,100208.13
2023-05-14T03:51:12.798Z,100203.63
2023-05-14T03:53:41.469Z,100189.69
2023-05-14T03:56:10.965Z,100182.53
2023-05-14T03:58:39.070Z,100184.00
2023-05-14T04:01:07.207Z,100193.53
2023-05-14T04:03:35.513Z,100185.59
2023-05-14T04:06:03.778Z,100199.41
2023-05-14T04:08:31.897Z,100195.69
2023-05-14T04:10:59.973Z,100188.56
2023-05-14T04:13:29.521Z,100186.69
2023-05-14T04:15:57.706Z,100194.59
2023-05-14T04:18:26.320Z,100183.19
2023-05-14T04:20:54.487Z,100188.22
2023-05-14T04:23:23.133Z,100190.59
2023-05-14T04:25:51.256Z,100180.91
2023-05-14T04:28:19.427Z,100183.47
2023-05-14T04:30:49.773Z,100180.75
2023-05-14T04:33:18.084Z,100178.03
2023-05-14T04:35:46.581Z,100188.50
2023-05-14T04:38:15.441Z,100177.16
2023-05-14T04:40:43.547Z,100185.72
2023-05-14T04:43:11.811Z,100180.84
2023-05-14T04:45:41.119Z,100185.97
2023-05-14T04:48:10.859Z,100183.81
2023-05-14T04:50:38.968Z,100186.72
2023-05-14T04:53:07.048Z,100184.16
2023-05-14T04:55:35.213Z,100189.59
2023-05-14T04:58:03.458Z,100195.47
2023-05-14T05:00:32.117Z,100177.94
2023-05-14T05:03:00.478Z,100177.94
2023-05-14T05:05:30.168Z,100186.63
2023-05-14T05:07:58.336Z,100181.28
2023-05-14T05:10:26.811Z,100184.66
2023-05-14T05:12:54.965Z,100184.59
2023-05-14T05:15:24.717Z,100176.59
2023-05-14T05:17:54.789Z,100172.41
2023-05-14T05:20:23.633Z,100170.38
2023-05-14T05:22:53.193Z,100174.81
2023-05-14T05:25:21.479Z,100172.91
2023-05-14T05:27:49.574Z,100165.44
2023-05-14T05:30:17.842Z,100167.03
2023-05-14T05:32:45.923Z,100168.00
2023-05-14T05:35:14.084Z,100173.84
2023-05-14T05:37:42.712Z,100169.63
2023-05-14T05:40:14.154Z,100167.56
2023-05-14T05:42:42.256Z,100173.59
2023-05-14T05:45:11.061Z,100168.31
2023-05-14T05:47:39.205Z,100168.41
2023-05-14T05:50:08.926Z,100164.69
2023-05-14T05:52:37.011Z,100177.53
2023-05-14T05:55:05.614Z,100172.44
2023-05-14T05:57:35.294Z,100177.63
2023-05-14T06:00:12.699Z,100179.31
2023-05-14T06:02:41.076Z,100179.25
2023-05-14T06:05:10.689Z,100173.28
2023-05-14T06:07:38.950Z,100174.88
2023-05-14T06:10:08.445Z,100173.28
2023-05-14T06:12:37.969Z,100179.25
2023-05-14T06:15:06.911Z,100184.69
2023-05-14T06:17:35.230Z,100179.25
2023-05-14T06:20:08.037Z,100182.78
2023-05-14T06:22:36.179Z,100184.69
2023-05-14T06:25:04.514Z,100183.06
2023-05-14T06:27:32.680Z,100187.41
2023-05-14T06:30:02.196Z,100193.81
2023-05-14T06:32:30.405Z,100184.59
2023-05-14T06:34:58.530Z,100188.00
2023-05-14T06:37:26.565Z,100183.41
2023-05-14T06:39:57.049Z,100178.97
2023-05-14T06:42:26.502Z,100183.84
2023-05-14T06:44:54.711Z,100173.28
2023-05-14T06:47:24.257Z,100168.50
2023-05-14T06:49:52.386Z,100165.69
2023-05-14T06:52:20.458Z,100163.06
2023-05-14T06:54:48.590Z,100159.41
2023-05-14T06:57:16.669Z,100160.66
2023-05-14T06:59:44.718Z,100156.81
2023-05-14T07:02:13.503Z,100147.38
2023-05-14T07:04:43.108Z,100150.69
2023-05-14T07:07:15.567Z,100147.16
2023-05-14T07:09:43.801Z,100146.66
2023-05-14T07:12:11.834Z,100144.59
2023-05-14T07:14:40.344Z,100148.53
2023-05-14T07:17:08.566Z,100138.25
2023-05-14T07:19:36.636Z,100140.28
2023-05-14T07:22:06.367Z,100132.53
2023-05-14T07:24:36.524Z,100132.94
2023-05-14T07:27:04.934Z,100131.25
2023-05-14T07:29:35.136Z,100132.59
2023-05-14T07:32:03.344Z,100129.00
2023-05-14T07:34:31.515Z,100128.97
2023-05-14T07:36:59.691Z,100126.28
2023-05-14T07:39:29.218Z,100136.78
2023-05-14T07:41:57.310Z,100132.34
2023-05-14T07:44:25.469Z,100129.09
2023-05-14T07:46:53.504Z,100122.75
2023-05-14T07:49:21.601Z,100116.66
2023-05-14T07:51:49.604Z,100114.78
2023-05-14T07:54:18.142Z,100107.22
2023-05-14T07:56:47.621Z,100107.63
2023-05-14T07:59:15.880Z,100107.38
2023-05-14T08:01:44.405Z,100102.44
2023-05-14T08:04:12.881Z,100101.38
2023-05-14T08:06:41.070Z,100096.84
2023-05-14T08:09:09.826Z,100085.19
2023-05-14T08:11:37.944Z,100085.09
2023-05-14T08:14:07.475Z,100086.03
2023-05-14T08:16:35.821Z,100076.31
2023-05-14T08:19:03.973Z,100075.00
2023-05-14T08:21:33.903Z,100077.72
2023-05-14T08:24:01.993Z,100077.81
2023-05-14T08:26:30.130Z,100064.38
2023-05-14T08:28:58.214Z,100061.38
2023-05-14T08:31:27.678Z,100059.25
2023-05-14T08:33:55.959Z,100067.31
2023-05-14T08:36:24.162Z,100067.16
2023-05-14T08:38:52.470Z,100051.69
2023-05-14T08:41:21.390Z,100053.50
2023-05-14T08:44:02.781Z,100050.44
2023-05-14T08:46:33.415Z,100042.84
2023-05-14T08:49:12.554Z,100041.28
2023-05-14T08:51:40.917Z,100047.03
2023-05-14T08:54:09.414Z,100042.16
2023-05-14T08:56:39.747Z,100049.97
2023-05-14T08:59:07.857Z,100043.66
2023-05-14T09:01:39.643Z,100043.22
2023-05-14T09:04:08.731Z,100036.63
2023-05-14T09:06:38.506Z,100043.41
2023-05-14T09:09:07.041Z,100049.88
2023-05-14T09:11:35.104Z,100041.91
2023-05-14T09:14:04.295Z,100040.69
2023-05-14T09:16:32.872Z,100037.09
2023-05-14T09:19:03.295Z,100031.34
2023-05-14T09:21:33.607Z,100040.56
2023-05-14T09:24:02.272Z,100039.59
2023-05-14T09:26:33.673Z,100031.13
2023-05-14T09:29:03.813Z,100019.50
2023-05-14T09:31:33.247Z,100028.69
2023-05-14T09:34:02.758Z,100024.16
2023-05-14T09:36:31.729Z,100014.75
2023-05-14T09:38:59.760Z,100020.88
2023-05-14T09:41:27.903Z,100020.88
2023-05-14T09:43:56.988Z,99998.31
2023-05-14T09:46:30.282Z,99997.69
2023-05-14T09:48:58.601Z,99994.94
2023-05-14T09:51:31.662Z,99994.28
2023-05-14T09:54:00.176Z,99993.03
2023-05-14T09:56:28.321Z,100006.16
2023-05-14T09:58:56.451Z,99987.81
2023-05-14T10:01:25.855Z,99981.03
2023-05-14T10:03:54.988Z,99970.97
2023-05-14T10:06:27.172Z,99978.19
2023-05-14T10:08:58.641Z,99948.81
2023-05-14T10:11:29.846Z,99948.19
2023-05-14T10:14:04.297Z,99929.84
2023-05-14T10:16:35.908Z,99922.56
2023-05-14T10:19:09.175Z,99919.19
2023-05-14T10:21:38.867Z,99913.97
2023-05-14T10:24:11.324Z,99883.91
2023-05-14T10:26:42.267Z,99868.00
2023-05-14T10:29:14.157Z,99880.09
2023-05-14T10:31:50.397Z,99902.22
2023-05-14T10:34:38.562Z,99919.28
2023-05-14T10:37:09.096Z,99921.53
2023-05-14T10:39:47.266Z,99922.47
2023-05-14T10:42:18.411Z,99918.97
2023-05-14T10:44:53.609Z,99918.44
2023-05-14T10:47:21.918Z,99923.53
2023-05-14T10:49:50.611Z,99906.56
2023-05-14T10:52:20.789Z,99904.47
2023-05-14T10:54:55.104Z,99903.69
2023-05-14T10:57:25.249Z,99891.53
2023-05-14T10:59:55.037Z,99902.53
2023-05-14T11:02:25.765Z,99905.50
2023-05-14T11:04:58.786Z,99905.91
2023-05-14T11:07:30.779Z,99905.00
2023-05-14T11:10:03.576Z,99905.44
2023-05-14T11:12:32.087Z,99900.56
2023-05-14T11:15:02.254Z,99887.34
2023-05-14T11:17:31.425Z,99889.97
2023-05-14T11:20:01.281Z,99892.06
2023-05-14T11:22:29.652Z,99895.28
2023-05-14T11:24:57.773Z,99898.84
2023-05-14T11:27:27.609Z,99891.66
2023-05-14T11:29:56.252Z,99885.31
2023-05-14T11:32:24.451Z,99875.28
2023-05-14T11:34:52.688Z,99884.38
2023-05-14T11:37:21.214Z,99877.78
2023-05-14T11:39:50.904Z,99878.53
2023-05-14T11:42:19.787Z,99882.38
2023-05-14T11:44:51.937Z,99888.59
2023-05-14T11:47:22.104Z,99863.72
2023-05-14T11:49:50.785Z,99885.31
2023-05-14T11:52:21.996Z,99880.97
2023-05-14T11:54:51.062Z,99864.38
2023-05-14T11:57:21.624Z,99877.69
2023-05-14T11:59:57.944Z,99855.66
2023-05-14T12:02:29.227Z,99850.81
2023-05-14T12:04:57.584Z,99859.03
2023-05-14T12:07:30.094Z,99850.16
2023-05-14T12:10:02.946Z,99853.50
2023-05-14T12:12:36.474Z,99845.69
2023-05-14T12:15:12.672Z,99846.44
2023-05-14T12:17:41.110Z,99825.47
2023-05-14T12:20:12.555Z,99837.00
2023-05-14T12:22:42.784Z,99826.44
2023-05-14T12:25:14.477Z,99825.84
2023-05-14T12:27:45.522Z,99818.50
2023-05-14T12:32:46.810Z,99821.09
2023-05-14T12:35:15.008Z,99822.94
2023-05-14T12:37:46.124Z,99823.56
2023-05-14T12:40:17.249Z,99828.38
2023-05-14T12:42:45.316Z,99828.59
2023-05-14T12:45:15.077Z,99840.13
2023-05-14T12:47:43.255Z,99825.41
2023-05-14T12:50:12.001Z,99821.81
2023-05-14T12:52:40.235Z,99815.41
2023-05-14T12:55:09.777Z,99804.84
2023-05-14T12:57:39.300Z,99797.22
2023-05-14T13:00:13.031Z,99806.00
2023-05-14T13:02:44.030Z,99789.41
2023-05-14T13:05:12.955Z,99781.47
2023-05-14T13:07:41.339Z,99774.34
2023-05-14T13:10:10.507Z,99781.31
2023-05-14T13:12:38.921Z,99774.19
2023-05-14T13:15:08.079Z,99787.41
2023-05-14T13:17:37.023Z,99776.63
2023-05-14T13:20:07.743Z,99766.81
2023-05-14T13:22:36.274Z,99766.06
2023-05-14T13:25:05.046Z,99761.00
2023-05-14T13:27:33.838Z,99751.34
2023-05-14T13:30:01.883Z,99747.69
2023-05-14T13:32:30.019Z,99738.97
2023-05-14T13:34:58.095Z,99738.13
2023-05-14T13:37:27.667Z,99747.88
2023-05-14T13:39:55.844Z,99741.53
2023-05-14T13:42:23.998Z,99733.41
2023-05-14T13:44:52.270Z,99729.06
2023-05-14T13:47:20.527Z,99722.09
2023-05-14T13:49:48.690Z,99721.16
2023-05-14T13:52:16.864Z,99717.56
2023-05-14T13:54:46.573Z,99698.53
2023-05-14T13:57:14.705Z,99711.44
2023-05-14T13:59:43.052Z,99702.56
2023-05-14T14:02:11.240Z,99705.84
2023-05-14T14:04:39.550Z,99714.63
2023-05-14T14:07:08.118Z,99703.44
2023-05-14T14:09:37.037Z,99702.28
2023-05-14T14:12:07.457Z,99689.91
2023-05-14T14:14:35.676Z,99695.84
2023-05-14T14:17:03.774Z,99699.34
2023-05-14T14:19:31.855Z,99705.66
2023-05-14T14:22:00.132Z,99697.91
2023-05-14T14:24:28.267Z,99705.28
2023-05-14T14:26:56.367Z,99700.19
2023-05-14T14:29:25.882Z,99698.25
2023-05-14T14:31:53.994Z,99701.88
2023-05-14T14:34:22.148Z,99704.38
2023-05-14T14:36:50.283Z,99694.88
2023-05-14T14:39:18.391Z,99702.94
2023-05-14T14:41:47.740Z,99697.53
2023-05-14T14:44:15.933Z,99693.41
2023-05-14T14:46:45.361Z,99678.69
2023-05-14T14:49:13.406Z,99679.34
2023-05-14T14:51:41.970Z,99675.63
2023-05-14T14:54:10.037Z,99681.97
2023-05-14T14:56:38.151Z,99675.41
2023-05-14T14:59:06.596Z,99676.25
2023-05-14T15:01:34.805Z,99661.19
2023-05-14T15:04:04.520Z,99652.94
2023-05-14T15:06:32.612Z,99671.28
2023-05-14T15:09:00.879Z,99690.06
2023-05-14T15:11:29.740Z,99651.13
2023-05-14T15:13:57.837Z,99654.00
2023-05-14T15:16:25.945Z,99654.91
2023-05-14T15:18:54.268Z,99651.53
2023-05-14T15:21:23.882Z,99643.72
2023-05-14T15:23:51.908Z,99659.56
2023-05-14T15:26:19.946Z,99644.66
2023-05-14T15:28:48.015Z,99651.84
2023-05-14T15:31:16.134Z,99652.56
2023-05-14T15:33:44.164Z,99637.97
2023-05-14T15:36:12.835Z,99654.38
2023-05-14T15:38:42.457Z,99650.78
2023-05-14T15:41:10.618Z,99645.50
2023-05-14T15:43:38.691Z,99651.00
2023-05-14T15:46:06.875Z,99640.50
2023-05-14T15:48:36.436Z,99639.78
2023-05-14T15:51:04.648Z,99633.94
2023-05-14T15:53:32.712Z,99626.88
2023-05-14T15:56:02.270Z,99610.56
2023-05-14T15:58:30.253Z,99600.56
2023-05-14T16:00:58.390Z,99589.16
2023-05-14T16:03:26.614Z,99582.41
2023-05-14T16:05:54.976Z,99588.31
2023-05-14T16:08:23.067Z,99578.06
2023-05-14T16:10:51.215Z,99584.66
2023-05-14T16:13:21.060Z,99583.91
2023-05-14T16:15:49.607Z,99593.53
2023-05-14T16:18:17.704Z,99588.97
2023-05-14T16:20:45.836Z,99586.66
2023-05-14T16:23:13.910Z,99591.63
2023-05-14T16:25:42.035Z,99592.56
2023-05-14T16:28:10.185Z,99587.47
2023-05-14T16:30:42.059Z,99588.78
2023-05-14T16:33:10.194Z,99586.34
2023-05-14T16:35:39.474Z,99587.47
2023-05-14T16:38:07.889Z,99580.22
2023-05-14T16:40:36.045Z,99580.97
2023-05-14T16:43:04.491Z,99549.25
2023-05-14T16:45:34.929Z,99568.53
2023-05-14T16:48:04.517Z,99548.84
2023-05-14T16:50:33.218Z,99543.16
2023-05-14T16:53:01.318Z,99551.00
2023-05-14T16:55:29.360Z,99549.94
2023-05-14T16:57:57.529Z,99539.38
2023-05-14T17:00:26.108Z,99548.81
2023-05-14T17:02:54.490Z,99541.06
2023-05-14T17:05:24.972Z,99536.88
2023-05-14T17:07:53.460Z,99533.38
2023-05-14T17:10:21.683Z,99537.50
2023-05-14T17:12:50.109Z,99539.19
2023-05-14T17:15:18.600Z,99535.59
2023-05-14T17:17:47.469Z,99534.56
2023-05-14T17:20:16.917Z,99516.19
2023-05-14T17:22:46.768Z,99518.09
2023-05-14T17:25:14.829Z,99514.69
2023-05-14T17:27:42.981Z,99506.88
2023-05-14T17:30:11.865Z,99509.22
2023-05-14T17:32:39.991Z,99503.22
2023-05-14T17:35:09.720Z,99498.84
2023-05-14T17:37:37.854Z,99484.50
2023-05-14T17:40:08.613Z,99496.03
2023-05-14T17:42:36.819Z,99506.38
2023-05-14T17:45:05.380Z,99501.22
2023-05-14T17:47:33.640Z,99505.44
2023-05-14T17:50:02.095Z,99499.97
2023-05-14T17:52:30.221Z,99493.84
2023-05-14T17:54:58.392Z,99502.47
2023-05-14T17:57:28.026Z,99490.13
2023-05-14T17:59:56.723Z,99487.50
2023-05-14T18:02:25.169Z,99476.84
2023-05-14T18:04:55.167Z,99488.97
2023-05-14T18:07:24.239Z,99482.00
2023-05-14T18:09:52.783Z,99482.75
2023-05-14T18:12:21.232Z,99483.69
2023-05-14T18:14:51.163Z,99478.22
2023-05-14T18:17:19.993Z,99473.06
2023-05-14T18:19:48.446Z,99467.66
2023-05-14T18:22:16.983Z,99474.94
2023-05-14T18:24:47.967Z,99479.25
2023-05-14T18:27:16.068Z,99474.63
2023-05-14T18:29:44.941Z,99468.81
2023-05-14T18:32:14.908Z,99465.22
2023-05-14T18:34:43.056Z,99479.91
2023-05-14T18:37:11.253Z,99467.47
2023-05-14T18:39:40.325Z,99468.38
2023-05-14T18:42:09.623Z,99473.47
2023-05-14T18:44:44.378Z,99476.31
2023-05-14T18:47:12.869Z,99478.09
2023-05-14T18:49:42.823Z,99478.88
2023-05-14T18:52:11.361Z,99486.88
2023-05-14T18:54:40.660Z,99482.47
2023-05-14T18:57:09.923Z,99486.66
2023-05-14T18:59:38.347Z,99485.41
2023-05-14T19:02:06.972Z,99481.84
2023-05-14T19:04:47.777Z,99479.28
2023-05-14T19:07:20.745Z,99486.28
2023-05-14T19:09:49.216Z,99494.72
2023-05-14T19:12:22.116Z,99482.69
2023-05-14T19:14:50.562Z,99470.44
2023-05-14T19:17:20.475Z,99474.75
2023-05-14T19:19:48.876Z,99473.06
2023-05-14T19:22:17.361Z,99454.03
2023-05-14T19:24:46.834Z,99463.44
2023-05-14T19:27:16.726Z,99465.25
2023-05-14T19:29:45.678Z,99467.69
2023-05-14T19:32:16.514Z,99462.50
2023-05-14T19:34:45.061Z,99466.84
2023-05-14T19:37:13.444Z,99466.63
2023-05-14T19:39:41.601Z,99456.28
2023-05-14T19:42:11.457Z,99452.56
2023-05-14T19:44:39.933Z,99447.41
2023-05-14T19:47:09.529Z,99444.75
2023-05-14T19:49:37.833Z,99449.09
2023-05-14T19:52:06.799Z,99450.56
2023-05-14T19:54:37.532Z,99450.38
2023-05-14T19:57:09.708Z,99438.31
2023-05-14T19:59:40.102Z,99443.28
2023-05-14T20:02:09.626Z,99437.03
2023-05-14T20:04:40.102Z,99439.91
2023-05-14T20:07:09.370Z,99439.38
2023-05-14T20:09:40.831Z,99440.25
2023-05-14T20:12:10.520Z,99441.28
2023-05-14T20:14:41.173Z,99437.59
2023-05-14T20:17:09.347Z,99430.72
2023-05-14T20:19:37.628Z,99428.09
2023-05-14T20:22:06.097Z,99428.59
2023-05-14T20:24:34.158Z,99431.34
2023-05-14T20:27:02.333Z,99425.25
2023-05-14T20:29:30.488Z,99426.59
2023-05-14T20:32:00.273Z,99419.72
2023-05-14T20:34:28.563Z,99416.25
2023-05-14T20:36:57.646Z,99416.47
2023-05-14T20:39:25.881Z,99404.09
2023-05-14T20:41:53.900Z,99399.22
2023-05-14T20:44:21.903Z,99393.75
2023-05-14T20:46:50.034Z,99389.31
2023-05-14T20:49:19.610Z,99385.19
2023-05-14T20:51:47.668Z,99384.22
2023-05-14T20:54:15.791Z,99386.78
2023-05-14T20:56:43.945Z,99390.34
2023-05-14T20:59:12.305Z,99385.31
2023-05-14T21:01:43.074Z,99365.44
2023-05-14T21:04:11.992Z,99371.34
2023-05-14T21:06:42.066Z,99359.22
2023-05-14T21:09:10.900Z,99363.56
2023-05-14T21:11:39.257Z,99354.28
2023-05-14T21:14:07.322Z,99367.75
2023-05-14T21:16:35.483Z,99365.22
2023-05-14T21:19:03.638Z,99358.16
2023-05-14T21:21:31.745Z,99348.56
2023-05-14T21:24:01.311Z,99344.94
2023-05-14T21:26:33.459Z,99349.19
2023-05-14T21:29:02.256Z,99350.03
2023-05-14T21:31:30.784Z,99344.94
2023-05-14T21:33:59.163Z,99330.59
2023-05-14T21:36:27.306Z,99325.09
2023-05-14T21:38:55.420Z,99312.84
2023-05-14T21:41:24.906Z,99304.94
2023-05-14T21:43:53.031Z,99302.28
2023-05-14T21:46:21.233Z,99298.06
2023-05-14T21:48:49.390Z,99302.28
2023-05-14T21:51:17.821Z,99291.59
2023-05-14T21:53:46.382Z,99294.13
2023-05-14T21:56:14.515Z,99287.91
2023-05-14T21:58:44.001Z,99298.47
2023-05-14T22:01:14.262Z,99294.13
2023-05-14T22:03:42.574Z,99307.34
2023-05-14T22:06:10.770Z,99306.50
2023-05-14T22:08:38.848Z,99309.66
2023-05-14T22:11:06.925Z,99310.50
2023-05-14T22:13:37.700Z,99316.63
2023-05-14T22:16:12.781Z,99308.81
2023-05-14T22:18:41.777Z,99316.41
2023-05-14T22:21:09.873Z,99317.28
2023-05-14T22:23:37.984Z,99307.53
2023-05-14T22:26:06.318Z,99315.56
2023-05-14T22:28:34.402Z,99305.22
2023-05-14T22:31:02.523Z,99299.19
2023-05-14T22:33:33.287Z,99301.84
2023-05-14T22:36:01.483Z,99312.00
2023-05-14T22:38:29.575Z,99303.19
2023-05-14T22:40:57.635Z,99305.00
2023-05-14T22:43:25.885Z,99307.75
2023-05-14T22:45:54.152Z,99305.94
2023-05-14T22:48:22.516Z,99308.47
2023-05-14T22:50:52.018Z,99304.91
2023-05-14T22:53:20.097Z,99308.38
2023-05-14T22:55:48.366Z,99296.22
2023-05-14T22:58:16.384Z,99309.09
2023-05-14T23:00:44.489Z,99302.16
2023-05-14T23:03:12.514Z,99296.13
2023-05-14T23:05:40.644Z,99296.75
2023-05-14T23:08:10.117Z,99299.50
2023-05-14T23:10:38.218Z,99286.41
2023-05-14T23:13:06.444Z,99290.84
2023-05-14T23:15:34.603Z,99279.34
2023-05-14T23:18:02.830Z,99275.00
2023-05-14T23:20:31.104Z,99277.66
2023-05-14T23:22:59.207Z,99264.53
2023-05-14T23:25:28.718Z,99257.47
2023-05-14T23:27:56.928Z,99248.06
2023-05-14T23:30:25.114Z,99244.38
2023-05-14T23:32:53.210Z,99240.97
2023-05-14T23:35:21.336Z,99232.97
2023-05-14T23:37:51.018Z,99234.84
2023-05-14T23:40:19.459Z,99245.22
2023-05-14T23:42:48.942Z,99234.44
2023-05-14T23:45:17.126Z,99237.91
2023-05-14T23:47:45.358Z,99228.41
2023-05-14T23:50:13.474Z,99218.81
2023-05-14T23:52:41.720Z,99208.44
2023-05-14T23:55:10.694Z,99211.84
2023-05-14T23:57:38.880Z,99215.44
